Weather at Guillermo León Valencia Airport

Public forecast

Using degrees Celsius for public forecast. Weather courtesy of forecast.io.

Current aviation weather report (METAR) for Guillermo León Valencia Airport

Report is more than 6 hours old.

Retrieved 2020/11/11 11:00 UTC (5 months ago):

SKPP 111100Z 00000KT 5000 BR SCT008 BKN020 16/16 A3016

Closest aviation forecast (TAF) to Guillermo León Valencia Airport

Closest forecast is Alfonso Bonilla Aragon International Airport, 66.8 nm (123.7 km) NNE. Retrieved 2021/04/12 06:00 UTC (6 hours ago):

TAF SKCL 120430Z 1206/1306 VRB02KT 9999 SCT020 SCT080 BECMG 1215/1217 04008KT SCT030 TEMPO 1221/1223 DZRA SCT020CB BECMG 1303/1305 VRB02KT SCT020 TX31/1220Z TN18/1210Z